sensor_id;sensor_type;location;lat;lon;timestamp;pressure;altitude;pressure_sealevel;temperature;humidity
77881;BME280;67077;50.298;18.996;2023-05-10T00:00:07;98204.50;;;7.14;57.68
77881;BME280;67077;50.298;18.996;2023-05-10T00:03:08;98202.61;;;7.10;57.89
77881;BME280;67077;50.298;18.996;2023-05-10T00:05:37;98198.20;;;7.06;58.06
77881;BME280;67077;50.298;18.996;2023-05-10T00:08:05;98194.52;;;7.03;58.06
77881;BME280;67077;50.298;18.996;2023-05-10T00:10:33;98193.63;;;7.00;58.46
77881;BME280;67077;50.298;18.996;2023-05-10T00:13:01;98195.17;;;6.96;58.45
77881;BME280;67077;50.298;18.996;2023-05-10T00:15:30;98193.91;;;6.94;58.48
77881;BME280;67077;50.298;18.996;2023-05-10T00:18:02;98191.78;;;6.91;58.54
77881;BME280;67077;50.298;18.996;2023-05-10T00:20:30;98186.77;;;6.87;58.72
77881;BME280;67077;50.298;18.996;2023-05-10T00:22:58;98185.20;;;6.86;58.67
77881;BME280;67077;50.298;18.996;2023-05-10T00:25:26;98185.55;;;6.83;58.88
77881;BME280;67077;50.298;18.996;2023-05-10T00:27:54;98184.95;;;6.81;58.93
77881;BME280;67077;50.298;18.996;2023-05-10T00:30:25;98186.63;;;6.79;59.30
77881;BME280;67077;50.298;18.996;2023-05-10T00:32:53;98186.52;;;6.76;59.30
77881;BME280;67077;50.298;18.996;2023-05-10T00:35:21;98182.14;;;6.73;59.44
77881;BME280;67077;50.298;18.996;2023-05-10T00:37:49;98178.02;;;6.70;59.61
77881;BME280;67077;50.298;18.996;2023-05-10T00:40:17;98176.85;;;6.69;59.64
77881;BME280;67077;50.298;18.996;2023-05-10T00:42:45;98176.49;;;6.66;59.72
77881;BME280;67077;50.298;18.996;2023-05-10T00:45:13;98176.89;;;6.63;59.81
77881;BME280;67077;50.298;18.996;2023-05-10T00:47:42;98175.62;;;6.60;59.85
77881;BME280;67077;50.298;18.996;2023-05-10T00:50:10;98177.19;;;6.57;60.32
77881;BME280;67077;50.298;18.996;2023-05-10T00:52:38;98174.23;;;6.55;60.21
77881;BME280;67077;50.298;18.996;2023-05-10T00:55:07;98170.16;;;6.51;60.38
77881;BME280;67077;50.298;18.996;2023-05-10T00:57:35;98174.67;;;6.48;60.59
77881;BME280;67077;50.298;18.996;2023-05-10T01:00:03;98172.29;;;6.45;60.52
77881;BME280;67077;50.298;18.996;2023-05-10T01:02:35;98169.20;;;6.41;60.84
77881;BME280;67077;50.298;18.996;2023-05-10T01:05:03;98169.73;;;6.38;61.12
77881;BME280;67077;50.298;18.996;2023-05-10T01:07:32;98169.77;;;6.35;61.06
77881;BME280;67077;50.298;18.996;2023-05-10T01:10:00;98172.05;;;6.31;61.26
77881;BME280;67077;50.298;18.996;2023-05-10T01:12:29;98164.61;;;6.27;61.12
77881;BME280;67077;50.298;18.996;2023-05-10T01:14:57;98163.58;;;6.24;61.31
77881;BME280;67077;50.298;18.996;2023-05-10T01:17:26;98162.19;;;6.21;61.44
77881;BME280;67077;50.298;18.996;2023-05-10T01:19:54;98163.48;;;6.18;61.35
77881;BME280;67077;50.298;18.996;2023-05-10T01:34:06;98159.86;;;6.05;62.04
77881;BME280;67077;50.298;18.996;2023-05-10T01:36:45;98162.61;;;6.03;62.38
77881;BME280;67077;50.298;18.996;2023-05-10T01:39:37;98161.10;;;6.01;62.49
77881;BME280;67077;50.298;18.996;2023-05-10T01:42:23;98156.73;;;5.98;62.60
77881;BME280;67077;50.298;18.996;2023-05-10T01:45:22;98156.89;;;5.97;62.62
77881;BME280;67077;50.298;18.996;2023-05-10T01:50:29;98149.23;;;5.93;62.58
77881;BME280;67077;50.298;18.996;2023-05-10T01:53:00;98150.12;;;5.91;62.51
77881;BME280;67077;50.298;18.996;2023-05-10T01:55:32;98148.54;;;5.89;62.45
77881;BME280;67077;50.298;18.996;2023-05-10T01:58:08;98149.67;;;5.87;62.39
77881;BME280;67077;50.298;18.996;2023-05-10T02:00:40;98145.90;;;5.86;62.47
77881;BME280;67077;50.298;18.996;2023-05-10T02:03:12;98146.65;;;5.87;62.40
77881;BME280;67077;50.298;18.996;2023-05-10T02:05:43;98142.48;;;5.87;62.31
77881;BME280;67077;50.298;18.996;2023-05-10T02:08:14;98141.15;;;5.85;62.45
77881;BME280;67077;50.298;18.996;2023-05-10T02:10:46;98138.10;;;5.83;62.43
77881;BME280;67077;50.298;18.996;2023-05-10T02:13:16;98135.61;;;5.79;62.48
77881;BME280;67077;50.298;18.996;2023-05-10T02:15:48;98134.95;;;5.76;62.74
77881;BME280;67077;50.298;18.996;2023-05-10T02:18:18;98131.34;;;5.74;62.72
77881;BME280;67077;50.298;18.996;2023-05-10T02:20:47;98130.34;;;5.72;62.80
77881;BME280;67077;50.298;18.996;2023-05-10T02:23:16;98126.34;;;5.69;62.73
77881;BME280;67077;50.298;18.996;2023-05-10T02:25:48;98124.86;;;5.67;62.78
77881;BME280;67077;50.298;18.996;2023-05-10T02:28:17;98124.13;;;5.65;63.16
77881;BME280;67077;50.298;18.996;2023-05-10T02:30:47;98123.26;;;5.67;62.96
77881;BME280;67077;50.298;18.996;2023-05-10T02:33:15;98125.42;;;5.68;62.87
77881;BME280;67077;50.298;18.996;2023-05-10T02:35:44;98123.99;;;5.66;62.87
77881;BME280;67077;50.298;18.996;2023-05-10T02:38:14;98121.10;;;5.64;63.05
77881;BME280;67077;50.298;18.996;2023-05-10T02:40:44;98120.12;;;5.61;62.97
77881;BME280;67077;50.298;18.996;2023-05-10T02:43:15;98118.95;;;5.60;63.18
77881;BME280;67077;50.298;18.996;2023-05-10T02:45:47;98121.02;;;5.57;63.36
77881;BME280;67077;50.298;18.996;2023-05-10T02:48:16;98121.25;;;5.55;63.51
77881;BME280;67077;50.298;18.996;2023-05-10T02:50:45;98121.61;;;5.54;63.30
77881;BME280;67077;50.298;18.996;2023-05-10T02:53:22;98120.41;;;5.54;63.17
77881;BME280;67077;50.298;18.996;2023-05-10T02:55:56;98124.88;;;5.55;63.31
77881;BME280;67077;50.298;18.996;2023-05-10T02:58:25;98123.31;;;5.55;63.21
77881;BME280;67077;50.298;18.996;2023-05-10T03:00:54;98124.90;;;5.53;63.15
77881;BME280;67077;50.298;18.996;2023-05-10T03:03:22;98125.17;;;5.52;63.26
77881;BME280;67077;50.298;18.996;2023-05-10T03:05:50;98124.44;;;5.51;63.32
77881;BME280;67077;50.298;18.996;2023-05-10T03:08:22;98124.66;;;5.49;63.19
77881;BME280;67077;50.298;18.996;2023-05-10T03:13:37;98125.11;;;5.46;63.46
77881;BME280;67077;50.298;18.996;2023-05-10T03:16:15;98125.25;;;5.43;63.31
77881;BME280;67077;50.298;18.996;2023-05-10T03:18:50;98122.15;;;5.42;63.69
77881;BME280;67077;50.298;18.996;2023-05-10T03:21:22;98124.14;;;5.43;63.48
77881;BME280;67077;50.298;18.996;2023-05-10T03:24:05;98124.44;;;5.48;63.46
77881;BME280;67077;50.298;18.996;2023-05-10T03:26:35;98126.08;;;5.51;63.51
77881;BME280;67077;50.298;18.996;2023-05-10T03:29:06;98124.48;;;5.51;63.52
77881;BME280;67077;50.298;18.996;2023-05-10T03:31:34;98121.23;;;5.50;63.62
77881;BME280;67077;50.298;18.996;2023-05-10T03:34:02;98121.27;;;5.49;63.91
77881;BME280;67077;50.298;18.996;2023-05-10T03:36:30;98118.02;;;5.48;63.67
77881;BME280;67077;50.298;18.996;2023-05-10T03:38:58;98117.33;;;5.47;63.70
77881;BME280;67077;50.298;18.996;2023-05-10T03:41:27;98114.80;;;5.45;63.98
77881;BME280;67077;50.298;18.996;2023-05-10T03:43:55;98113.38;;;5.44;64.07
77881;BME280;67077;50.298;18.996;2023-05-10T03:46:23;98112.90;;;5.45;63.95
77881;BME280;67077;50.298;18.996;2023-05-10T03:48:51;98112.52;;;5.48;64.19
77881;BME280;67077;50.298;18.996;2023-05-10T03:51:19;98111.19;;;5.56;64.20
77881;BME280;67077;50.298;18.996;2023-05-10T03:53:48;98110.55;;;5.86;63.80
77881;BME280;67077;50.298;18.996;2023-05-10T03:56:16;98110.52;;;6.23;63.21
77881;BME280;67077;50.298;18.996;2023-05-10T03:58:44;98113.48;;;6.61;62.40
77881;BME280;67077;50.298;18.996;2023-05-10T04:01:12;98111.49;;;6.96;61.39
77881;BME280;67077;50.298;18.996;2023-05-10T04:03:40;98115.66;;;7.31;60.64
77881;BME280;67077;50.298;18.996;2023-05-10T04:06:09;98113.40;;;7.63;59.62
77881;BME280;67077;50.298;18.996;2023-05-10T04:08:39;98115.23;;;7.97;58.84
77881;BME280;67077;50.298;18.996;2023-05-10T04:11:08;98111.31;;;8.27;57.86
77881;BME280;67077;50.298;18.996;2023-05-10T04:13:36;98109.72;;;8.50;56.95
77881;BME280;67077;50.298;18.996;2023-05-10T04:16:05;98112.02;;;8.74;56.43
77881;BME280;67077;50.298;18.996;2023-05-10T04:18:33;98107.16;;;8.95;55.69
77881;BME280;67077;50.298;18.996;2023-05-10T04:21:01;98109.07;;;9.17;55.28
77881;BME280;67077;50.298;18.996;2023-05-10T04:23:29;98109.48;;;9.38;54.56
77881;BME280;67077;50.298;18.996;2023-05-10T04:26:01;98110.06;;;9.55;54.24
77881;BME280;67077;50.298;18.996;2023-05-10T04:28:29;98108.59;;;9.75;53.45
77881;BME280;67077;50.298;18.996;2023-05-10T04:31:05;98107.80;;;9.87;52.92
77881;BME280;67077;50.298;18.996;2023-05-10T04:33:34;98106.11;;;10.01;52.68
77881;BME280;67077;50.298;18.996;2023-05-10T04:36:03;98109.77;;;10.23;52.06
77881;BME280;67077;50.298;18.996;2023-05-10T04:38:31;98108.30;;;10.33;51.62
77881;BME280;67077;50.298;18.996;2023-05-10T04:41:10;98105.44;;;10.47;51.37
77881;BME280;67077;50.298;18.996;2023-05-10T04:43:38;98106.21;;;10.62;50.77
77881;BME280;67077;50.298;18.996;2023-05-10T04:46:06;98104.92;;;10.70;50.63
77881;BME280;67077;50.298;18.996;2023-05-10T04:48:37;98106.64;;;10.86;50.51
77881;BME280;67077;50.298;18.996;2023-05-10T04:51:05;98107.40;;;10.96;50.06
77881;BME280;67077;50.298;18.996;2023-05-10T04:53:34;98103.75;;;11.05;49.79
77881;BME280;67077;50.298;18.996;2023-05-10T04:56:03;98106.94;;;11.15;49.66
77881;BME280;67077;50.298;18.996;2023-05-10T05:01:09;98108.02;;;11.49;48.71
77881;BME280;67077;50.298;18.996;2023-05-10T05:03:45;98106.75;;;11.58;48.41
77881;BME280;67077;50.298;18.996;2023-05-10T05:06:23;98099.52;;;11.61;48.07
77881;BME280;67077;50.298;18.996;2023-05-10T05:09:01;98104.48;;;11.59;48.05
77881;BME280;67077;50.298;18.996;2023-05-10T05:11:48;98100.05;;;11.61;47.90
77881;BME280;67077;50.298;18.996;2023-05-10T05:14:16;98098.40;;;11.60;48.22
77881;BME280;67077;50.298;18.996;2023-05-10T05:16:44;98094.40;;;11.60;48.77
77881;BME280;67077;50.298;18.996;2023-05-10T05:19:12;98095.34;;;11.55;48.52
77881;BME280;67077;50.298;18.996;2023-05-10T05:21:40;98094.20;;;11.48;48.49
77881;BME280;67077;50.298;18.996;2023-05-10T05:24:10;98094.88;;;11.49;48.07
77881;BME280;67077;50.298;18.996;2023-05-10T05:26:40;98095.95;;;11.50;48.36
77881;BME280;67077;50.298;18.996;2023-05-10T05:29:09;98094.09;;;11.58;48.04
77881;BME280;67077;50.298;18.996;2023-05-10T05:31:38;98098.29;;;11.62;47.80
77881;BME280;67077;50.298;18.996;2023-05-10T05:34:07;98094.66;;;11.63;47.70
77881;BME280;67077;50.298;18.996;2023-05-10T05:36:37;98092.55;;;11.62;47.19
77881;BME280;67077;50.298;18.996;2023-05-10T05:39:07;98093.37;;;11.56;47.24
77881;BME280;67077;50.298;18.996;2023-05-10T05:41:36;98091.70;;;11.44;47.60
77881;BME280;67077;50.298;18.996;2023-05-10T05:44:08;98093.31;;;11.33;47.86
77881;BME280;67077;50.298;18.996;2023-05-10T05:46:38;98093.80;;;11.26;47.96
77881;BME280;67077;50.298;18.996;2023-05-10T05:49:06;98096.48;;;11.21;48.26
77881;BME280;67077;50.298;18.996;2023-05-10T05:51:35;98091.86;;;11.17;48.44
77881;BME280;67077;50.298;18.996;2023-05-10T05:54:03;98095.79;;;11.14;48.44
77881;BME280;67077;50.298;18.996;2023-05-10T05:56:32;98098.11;;;11.15;48.90
77881;BME280;67077;50.298;18.996;2023-05-10T05:59:03;98100.58;;;11.19;49.00
77881;BME280;67077;50.298;18.996;2023-05-10T06:01:34;98095.87;;;11.21;48.51
77881;BME280;67077;50.298;18.996;2023-05-10T06:04:04;98097.17;;;11.18;48.32
77881;BME280;67077;50.298;18.996;2023-05-10T06:06:33;98090.17;;;11.17;48.66
77881;BME280;67077;50.298;18.996;2023-05-10T06:09:03;98093.77;;;11.19;48.48
77881;BME280;67077;50.298;18.996;2023-05-10T06:11:32;98091.33;;;11.21;48.46
77881;BME280;67077;50.298;18.996;2023-05-10T06:14:03;98091.34;;;11.23;47.87
77881;BME280;67077;50.298;18.996;2023-05-10T06:16:33;98092.14;;;11.23;47.82
77881;BME280;67077;50.298;18.996;2023-05-10T06:19:06;98098.06;;;11.25;47.84
77881;BME280;67077;50.298;18.996;2023-05-10T06:21:37;98096.66;;;11.31;47.99
77881;BME280;67077;50.298;18.996;2023-05-10T06:24:15;98101.02;;;11.38;47.95
77881;BME280;67077;50.298;18.996;2023-05-10T06:26:46;98103.02;;;11.47;47.94
77881;BME280;67077;50.298;18.996;2023-05-10T06:29:14;98107.09;;;11.55;47.76
77881;BME280;67077;50.298;18.996;2023-05-10T06:31:43;98104.65;;;11.65;47.97
77881;BME280;67077;50.298;18.996;2023-05-10T06:34:27;98105.70;;;11.79;47.25
77881;BME280;67077;50.298;18.996;2023-05-10T06:36:57;98107.64;;;11.89;46.95
77881;BME280;67077;50.298;18.996;2023-05-10T06:39:29;98110.58;;;11.99;46.76
77881;BME280;67077;50.298;18.996;2023-05-10T06:41:59;98104.09;;;12.10;46.52
77881;BME280;67077;50.298;18.996;2023-05-10T06:44:37;98103.66;;;12.23;46.05
77881;BME280;67077;50.298;18.996;2023-05-10T06:47:06;98106.72;;;12.34;45.76
77881;BME280;67077;50.298;18.996;2023-05-10T06:49:40;98101.84;;;12.46;45.74
77881;BME280;67077;50.298;18.996;2023-05-10T06:52:12;98100.27;;;12.58;45.26
77881;BME280;67077;50.298;18.996;2023-05-10T06:54:43;98094.96;;;12.65;44.03
77881;BME280;67077;50.298;18.996;2023-05-10T06:57:14;98098.78;;;12.72;43.88
77881;BME280;67077;50.298;18.996;2023-05-10T06:59:42;98095.27;;;12.79;44.28
77881;BME280;67077;50.298;18.996;2023-05-10T07:02:11;98094.48;;;12.91;44.10
77881;BME280;67077;50.298;18.996;2023-05-10T07:04:52;98086.77;;;13.04;44.11
77881;BME280;67077;50.298;18.996;2023-05-10T07:07:49;98084.85;;;13.21;43.79
77881;BME280;67077;50.298;18.996;2023-05-10T07:10:22;98083.75;;;13.31;42.86
77881;BME280;67077;50.298;18.996;2023-05-10T07:12:54;98080.97;;;13.38;42.79
77881;BME280;67077;50.298;18.996;2023-05-10T07:15:42;98078.92;;;13.48;42.30
77881;BME280;67077;50.298;18.996;2023-05-10T07:18:17;98073.42;;;13.58;41.62
77881;BME280;67077;50.298;18.996;2023-05-10T07:21:02;98080.46;;;13.66;42.10
77881;BME280;67077;50.298;18.996;2023-05-10T07:24:04;98081.63;;;13.70;42.10
77881;BME280;67077;50.298;18.996;2023-05-10T07:27:30;98080.30;;;13.82;41.54
77881;BME280;67077;50.298;18.996;2023-05-10T07:30:09;98079.66;;;13.93;41.00
77881;BME280;67077;50.298;18.996;2023-05-10T07:32:50;98075.63;;;13.98;41.01
77881;BME280;67077;50.298;18.996;2023-05-10T07:35:18;98074.30;;;14.08;40.22
77881;BME280;67077;50.298;18.996;2023-05-10T07:37:46;98072.75;;;14.15;40.15
77881;BME280;67077;50.298;18.996;2023-05-10T07:40:15;98066.52;;;14.25;39.79
77881;BME280;67077;50.298;18.996;2023-05-10T07:42:44;98066.35;;;14.36;39.64
77881;BME280;67077;50.298;18.996;2023-05-10T07:45:14;98064.98;;;14.46;39.82
77881;BME280;67077;50.298;18.996;2023-05-10T07:47:45;98064.48;;;14.57;39.37
77881;BME280;67077;50.298;18.996;2023-05-10T07:50:14;98058.83;;;14.67;38.09
77881;BME280;67077;50.298;18.996;2023-05-10T07:52:43;98055.16;;;14.74;37.63
77881;BME280;67077;50.298;18.996;2023-05-10T07:55:12;98059.97;;;14.83;37.46
77881;BME280;67077;50.298;18.996;2023-05-10T07:57:41;98055.33;;;14.95;37.19
77881;BME280;67077;50.298;18.996;2023-05-10T08:00:12;98054.61;;;15.05;36.85
77881;BME280;67077;50.298;18.996;2023-05-10T08:02:41;98055.16;;;15.16;36.41
77881;BME280;67077;50.298;18.996;2023-05-10T08:05:11;98056.13;;;15.26;35.63
77881;BME280;67077;50.298;18.996;2023-05-10T08:07:41;98054.61;;;15.33;34.61
77881;BME280;67077;50.298;18.996;2023-05-10T08:10:10;98051.59;;;15.40;34.55
77881;BME280;67077;50.298;18.996;2023-05-10T08:12:45;98050.49;;;15.44;34.28
77881;BME280;67077;50.298;18.996;2023-05-10T08:15:13;98051.52;;;15.49;34.62
77881;BME280;67077;50.298;18.996;2023-05-10T08:17:42;98050.05;;;15.50;34.73
77881;BME280;67077;50.298;18.996;2023-05-10T08:20:11;98045.84;;;15.52;35.02
77881;BME280;67077;50.298;18.996;2023-05-10T08:22:41;98048.71;;;15.60;35.06
77881;BME280;67077;50.298;18.996;2023-05-10T08:25:09;98047.66;;;15.59;34.35
77881;BME280;67077;50.298;18.996;2023-05-10T08:27:38;98047.80;;;15.58;35.12
77881;BME280;67077;50.298;18.996;2023-05-10T08:30:07;98052.29;;;15.64;35.68
77881;BME280;67077;50.298;18.996;2023-05-10T08:32:36;98051.70;;;15.74;35.38
77881;BME280;67077;50.298;18.996;2023-05-10T08:35:06;98050.73;;;15.83;35.60
77881;BME280;67077;50.298;18.996;2023-05-10T08:37:34;98056.13;;;15.97;35.22
77881;BME280;67077;50.298;18.996;2023-05-10T08:40:02;98054.45;;;16.07;34.61
77881;BME280;67077;50.298;18.996;2023-05-10T08:42:34;98051.50;;;16.17;34.53
77881;BME280;67077;50.298;18.996;2023-05-10T08:45:04;98052.33;;;16.26;34.06
77881;BME280;67077;50.298;18.996;2023-05-10T08:47:36;98046.48;;;16.32;33.35
77881;BME280;67077;50.298;18.996;2023-05-10T08:50:06;98048.65;;;16.36;33.28
77881;BME280;67077;50.298;18.996;2023-05-10T08:52:38;98051.72;;;16.41;33.23
77881;BME280;67077;50.298;18.996;2023-05-10T08:55:09;98049.17;;;16.44;33.21
77881;BME280;67077;50.298;18.996;2023-05-10T08:57:37;98050.06;;;16.46;33.16
77881;BME280;67077;50.298;18.996;2023-05-10T09:00:06;98048.43;;;16.46;33.24
77881;BME280;67077;50.298;18.996;2023-05-10T09:02:37;98050.69;;;16.48;33.00
77881;BME280;67077;50.298;18.996;2023-05-10T09:05:07;98046.39;;;16.51;33.06
77881;BME280;67077;50.298;18.996;2023-05-10T09:07:36;98047.65;;;16.55;33.46
77881;BME280;67077;50.298;18.996;2023-05-10T09:10:05;98048.19;;;16.60;33.54
77881;BME280;67077;50.298;18.996;2023-05-10T09:12:35;98045.20;;;16.56;33.17
77881;BME280;67077;50.298;18.996;2023-05-10T09:15:09;98044.52;;;16.49;32.73
77881;BME280;67077;50.298;18.996;2023-05-10T09:17:42;98040.48;;;16.42;33.57
77881;BME280;67077;50.298;18.996;2023-05-10T09:20:12;98041.97;;;16.50;33.89
77881;BME280;67077;50.298;18.996;2023-05-10T09:22:40;98044.20;;;16.59;33.66
77881;BME280;67077;50.298;18.996;2023-05-10T09:25:11;98046.67;;;16.55;32.93
77881;BME280;67077;50.298;18.996;2023-05-10T09:27:41;98044.63;;;16.54;33.31
77881;BME280;67077;50.298;18.996;2023-05-10T09:30:23;98043.20;;;16.57;33.86
77881;BME280;67077;50.298;18.996;2023-05-10T09:32:54;98030.92;;;16.65;33.66
77881;BME280;67077;50.298;18.996;2023-05-10T09:35:25;98036.02;;;16.76;33.29
77881;BME280;67077;50.298;18.996;2023-05-10T09:37:56;98042.21;;;16.85;32.90
77881;BME280;67077;50.298;18.996;2023-05-10T09:40:30;98045.59;;;16.91;33.14
77881;BME280;67077;50.298;18.996;2023-05-10T09:43:03;98039.45;;;16.96;32.91
77881;BME280;67077;50.298;18.996;2023-05-10T09:45:33;98036.27;;;17.06;33.21
77881;BME280;67077;50.298;18.996;2023-05-10T09:48:03;98038.52;;;17.16;33.07
77881;BME280;67077;50.298;18.996;2023-05-10T09:50:31;98033.52;;;17.20;32.87
77881;BME280;67077;50.298;18.996;2023-05-10T09:53:01;98029.42;;;17.20;32.97
77881;BME280;67077;50.298;18.996;2023-05-10T09:55:40;98032.50;;;17.31;33.19
77881;BME280;67077;50.298;18.996;2023-05-10T09:58:09;98031.39;;;17.40;31.98
77881;BME280;67077;50.298;18.996;2023-05-10T10:00:43;98026.59;;;17.39;31.46
77881;BME280;67077;50.298;18.996;2023-05-10T10:03:19;98028.60;;;17.38;31.96
77881;BME280;67077;50.298;18.996;2023-05-10T10:05:48;98026.29;;;17.34;32.20
77881;BME280;67077;50.298;18.996;2023-05-10T10:08:17;98023.21;;;17.43;32.51
77881;BME280;67077;50.298;18.996;2023-05-10T10:10:46;98023.80;;;17.47;31.66
77881;BME280;67077;50.298;18.996;2023-05-10T10:13:15;98025.88;;;17.40;31.28
77881;BME280;67077;50.298;18.996;2023-05-10T10:15:44;98023.38;;;17.42;32.28
77881;BME280;67077;50.298;18.996;2023-05-10T10:18:14;98019.17;;;17.52;32.20
77881;BME280;67077;50.298;18.996;2023-05-10T10:20:46;98018.52;;;17.64;31.64
77881;BME280;67077;50.298;18.996;2023-05-10T10:23:14;98013.55;;;17.73;31.45
77881;BME280;67077;50.298;18.996;2023-05-10T10:25:44;98017.86;;;17.79;31.48
77881;BME280;67077;50.298;18.996;2023-05-10T10:34:25;98009.89;;;18.00;30.85
77881;BME280;67077;50.298;18.996;2023-05-10T10:36:46;98006.14;;;18.06;30.86
77881;BME280;67077;50.298;18.996;2023-05-10T10:39:15;97998.01;;;18.14;31.04
77881;BME280;67077;50.298;18.996;2023-05-10T10:41:56;97994.13;;;18.25;31.41
77881;BME280;67077;50.298;18.996;2023-05-10T10:52:14;97984.20;;;18.79;30.42
77881;BME280;67077;50.298;18.996;2023-05-10T10:55:07;97982.70;;;18.94;29.71
77881;BME280;67077;50.298;18.996;2023-05-10T11:03:01;97973.75;;;19.18;29.39
77881;BME280;67077;50.298;18.996;2023-05-10T11:05:49;97979.00;;;19.10;29.93
77881;BME280;67077;50.298;18.996;2023-05-10T11:11:07;97971.88;;;19.20;29.60
77881;BME280;67077;50.298;18.996;2023-05-10T11:13:45;97972.61;;;19.24;29.46
77881;BME280;67077;50.298;18.996;2023-05-10T11:16:22;97975.39;;;19.20;29.59
77881;BME280;67077;50.298;18.996;2023-05-10T11:19:07;97977.36;;;19.16;29.03
77881;BME280;67077;50.298;18.996;2023-05-10T11:21:46;97973.13;;;18.85;28.77
77881;BME280;67077;50.298;18.996;2023-05-10T11:24:18;97971.09;;;18.66;29.89
77881;BME280;67077;50.298;18.996;2023-05-10T11:26:50;97972.68;;;18.67;30.12
77881;BME280;67077;50.298;18.996;2023-05-10T11:29:20;97975.14;;;18.58;29.33
77881;BME280;67077;50.298;18.996;2023-05-10T11:31:50;97968.27;;;18.46;29.16
77881;BME280;67077;50.298;18.996;2023-05-10T11:34:25;97967.05;;;18.35;29.50
77881;BME280;67077;50.298;18.996;2023-05-10T11:36:57;97966.85;;;18.36;29.93
77881;BME280;67077;50.298;18.996;2023-05-10T11:39:31;97966.58;;;18.50;29.86
77881;BME280;67077;50.298;18.996;2023-05-10T11:42:00;97959.80;;;18.59;29.96
77881;BME280;67077;50.298;18.996;2023-05-10T11:44:30;97961.45;;;18.61;29.43
77881;BME280;67077;50.298;18.996;2023-05-10T11:47:00;97954.28;;;18.56;29.80
77881;BME280;67077;50.298;18.996;2023-05-10T11:49:29;97954.38;;;18.52;29.71
77881;BME280;67077;50.298;18.996;2023-05-10T11:52:13;97956.40;;;18.47;29.92
77881;BME280;67077;50.298;18.996;2023-05-10T11:54:55;97950.43;;;18.52;29.90
77881;BME280;67077;50.298;18.996;2023-05-10T11:57:26;97952.86;;;18.63;30.07
77881;BME280;67077;50.298;18.996;2023-05-10T11:59:57;97948.48;;;18.67;29.20
77881;BME280;67077;50.298;18.996;2023-05-10T12:02:25;97944.83;;;18.69;29.45
77881;BME280;67077;50.298;18.996;2023-05-10T12:04:55;97943.95;;;18.73;29.83
77881;BME280;67077;50.298;18.996;2023-05-10T12:07:27;97946.67;;;18.85;29.83
77881;BME280;67077;50.298;18.996;2023-05-10T12:10:06;97948.56;;;18.94;30.02
77881;BME280;67077;50.298;18.996;2023-05-10T12:12:46;97954.27;;;18.96;29.41
77881;BME280;67077;50.298;18.996;2023-05-10T12:15:22;97949.23;;;18.93;29.69
77881;BME280;67077;50.298;18.996;2023-05-10T12:17:54;97951.41;;;19.00;29.71
77881;BME280;67077;50.298;18.996;2023-05-10T12:20:27;97947.29;;;19.10;29.50
77881;BME280;67077;50.298;18.996;2023-05-10T12:22:59;97947.69;;;19.26;29.81
77881;BME280;67077;50.298;18.996;2023-05-10T12:25:37;97940.00;;;19.32;28.88
77881;BME280;67077;50.298;18.996;2023-05-10T12:28:08;97944.70;;;19.29;29.91
77881;BME280;67077;50.298;18.996;2023-05-10T12:30:39;97949.36;;;19.36;29.32
77881;BME280;67077;50.298;18.996;2023-05-10T12:33:13;97946.58;;;19.44;29.64
77881;BME280;67077;50.298;18.996;2023-05-10T12:35:50;97948.26;;;19.52;29.15
77881;BME280;67077;50.298;18.996;2023-05-10T12:38:43;97944.03;;;19.52;28.97
77881;BME280;67077;50.298;18.996;2023-05-10T12:41:17;97942.61;;;19.56;28.99
77881;BME280;67077;50.298;18.996;2023-05-10T12:43:51;97944.30;;;19.52;28.64
77881;BME280;67077;50.298;18.996;2023-05-10T12:46:20;97941.02;;;19.54;29.26
77881;BME280;67077;50.298;18.996;2023-05-10T12:48:50;97942.77;;;19.56;29.37
77881;BME280;67077;50.298;18.996;2023-05-10T12:51:23;97940.95;;;19.53;29.10
77881;BME280;67077;50.298;18.996;2023-05-10T12:53:53;97939.53;;;19.53;29.39
77881;BME280;67077;50.298;18.996;2023-05-10T12:56:24;97940.13;;;19.58;29.72
77881;BME280;67077;50.298;18.996;2023-05-10T12:58:56;97936.55;;;19.66;29.85
77881;BME280;67077;50.298;18.996;2023-05-10T13:01:28;97933.34;;;19.68;29.38
77881;BME280;67077;50.298;18.996;2023-05-10T13:03:58;97933.92;;;19.62;28.80
77881;BME280;67077;50.298;18.996;2023-05-10T13:06:29;97929.56;;;19.50;28.76
77881;BME280;67077;50.298;18.996;2023-05-10T13:08:58;97928.17;;;19.39;29.41
77881;BME280;67077;50.298;18.996;2023-05-10T13:11:36;97922.89;;;19.28;28.85
77881;BME280;67077;50.298;18.996;2023-05-10T13:14:07;97921.55;;;19.22;29.22
77881;BME280;67077;50.298;18.996;2023-05-10T13:16:36;97921.95;;;19.16;29.23
77881;BME280;67077;50.298;18.996;2023-05-10T13:19:05;97917.19;;;19.14;29.80
77881;BME280;67077;50.298;18.996;2023-05-10T13:21:34;97918.83;;;19.20;30.02
77881;BME280;67077;50.298;18.996;2023-05-10T13:24:04;97915.46;;;19.22;29.33
77881;BME280;67077;50.298;18.996;2023-05-10T13:26:33;97916.02;;;19.21;29.47
77881;BME280;67077;50.298;18.996;2023-05-10T13:29:03;97914.23;;;19.19;29.40
77881;BME280;67077;50.298;18.996;2023-05-10T13:31:33;97915.45;;;19.16;29.65
77881;BME280;67077;50.298;18.996;2023-05-10T13:34:07;97911.95;;;19.24;29.84
77881;BME280;67077;50.298;18.996;2023-05-10T13:36:53;97913.04;;;19.30;29.49
77881;BME280;67077;50.298;18.996;2023-05-10T13:39:23;97912.16;;;19.31;29.73
77881;BME280;67077;50.298;18.996;2023-05-10T13:41:54;97912.38;;;19.31;29.37
77881;BME280;67077;50.298;18.996;2023-05-10T13:44:23;97907.16;;;19.32;29.06
77881;BME280;67077;50.298;18.996;2023-05-10T13:46:53;97901.36;;;19.30;28.78
77881;BME280;67077;50.298;18.996;2023-05-10T13:49:25;97900.73;;;19.35;29.21
77881;BME280;67077;50.298;18.996;2023-05-10T13:51:56;97895.00;;;19.43;29.56
77881;BME280;67077;50.298;18.996;2023-05-10T13:54:25;97895.56;;;19.52;29.40
77881;BME280;67077;50.298;18.996;2023-05-10T13:56:55;97894.08;;;19.56;29.09